createdAt,value
2018-10-06T00:00:00.509Z,21.1
2018-10-06T00:05:00.515Z,19.8
2018-10-06T00:10:00.517Z,19.6
2018-10-06T00:30:01.006Z,22.2
2018-10-06T00:35:01.000Z,23.0
2018-10-06T00:40:01.123Z,22.8
2018-10-06T00:45:01.001Z,23.6
2018-10-06T00:50:01.006Z,23.1
2018-10-06T00:55:01.046Z,23.6
2018-10-06T01:00:01.040Z,22.7
2018-10-06T01:05:01.041Z,22.1
2018-10-06T01:10:01.077Z,19.4
2018-10-06T01:15:01.010Z,19.0
2018-10-06T01:20:01.058Z,17.9
2018-10-06T01:25:01.051Z,18.8
2018-10-06T01:30:01.153Z,19.0
2018-10-06T01:35:01.051Z,20.3
2018-10-06T01:40:01.135Z,19.9
2018-10-06T01:45:01.027Z,21.3
2018-10-06T01:50:01.279Z,20.2
2018-10-06T01:55:01.027Z,19.9
2018-10-06T02:00:01.061Z,19.8
2018-10-06T02:05:01.034Z,20.8
2018-10-06T02:10:01.058Z,22.4
2018-10-06T02:15:01.385Z,23.1
2018-10-06T02:25:02.103Z,23.9
2018-10-06T02:30:01.043Z,23.5
2018-10-06T02:35:01.073Z,21.0
2018-10-06T02:40:01.109Z,19.7
2018-10-06T02:45:02.039Z,19.0
2018-10-06T02:50:01.046Z,18.7
2018-10-06T02:55:01.046Z,18.9
2018-10-06T03:00:01.057Z,19.2
2018-10-06T03:05:01.057Z,20.1
2018-10-06T03:10:01.052Z,22.2
2018-10-06T03:15:01.054Z,22.9
2018-10-06T03:20:01.056Z,23.7
2018-10-06T03:25:01.058Z,23.5
2018-10-06T03:30:01.129Z,23.4
2018-10-06T03:35:01.061Z,23.0
2018-10-06T03:40:01.061Z,22.3
2018-10-06T03:45:01.067Z,20.9
2018-10-06T03:50:01.074Z,20.5
2018-10-06T03:55:01.477Z,21.0
2018-10-06T04:00:01.106Z,21.6
2018-10-06T04:05:01.073Z,22.8
2018-10-06T04:10:01.076Z,25.5
2018-10-06T04:15:01.090Z,27.3
2018-10-06T04:20:01.153Z,29.2
2018-10-06T04:25:01.096Z,29.4
2018-10-06T04:30:01.089Z,29.8
2018-10-06T04:35:01.092Z,28.9
2018-10-06T04:40:01.093Z,30.0
2018-10-06T04:45:01.098Z,27.8
2018-10-06T04:50:01.103Z,27.0
2018-10-06T04:55:01.100Z,26.0
2018-10-06T05:00:01.101Z,26.6
2018-10-06T05:05:01.103Z,27.6
2018-10-06T05:10:01.109Z,29.4
2018-10-06T05:15:01.104Z,31.6
2018-10-06T05:20:01.748Z,32.7
2018-10-06T05:25:01.098Z,31.6
2018-10-06T05:30:01.102Z,30.0
2018-10-06T05:35:01.121Z,30.2
2018-10-06T05:40:01.100Z,30.4
2018-10-06T05:45:01.105Z,31.2
2018-10-06T05:50:01.106Z,32.7
2018-10-06T05:55:01.108Z,33.0
2018-10-06T06:00:01.109Z,33.0
2018-10-06T06:05:01.107Z,33.5
2018-10-06T06:11:01.093Z,33.6
2018-10-06T06:16:01.124Z,33.7
2018-10-06T06:21:01.108Z,34.0
2018-10-06T06:26:01.191Z,33.0
2018-10-06T06:31:01.766Z,30.3
2018-10-06T06:36:01.104Z,29.4
2018-10-06T06:41:01.171Z,29.3
2018-10-06T06:46:01.164Z,28.8
2018-10-06T06:51:01.102Z,28.7
2018-10-06T06:56:01.116Z,28.8
2018-10-06T07:01:01.153Z,28.4
2018-10-06T07:06:01.102Z,28.6
2018-10-06T07:11:01.106Z,27.4
2018-10-06T07:16:01.102Z,29.6
2018-10-06T07:21:01.105Z,31.6
2018-10-06T07:26:01.109Z,33.6
2018-10-06T07:31:01.112Z,34.9
2018-10-06T07:36:01.146Z,37.0
2018-10-06T07:42:01.099Z,36.2
2018-10-06T07:47:01.099Z,35.3
2018-10-06T07:52:01.818Z,35.4
2018-10-06T07:57:01.111Z,34.6
2018-10-06T08:02:01.114Z,37.5
2018-10-06T08:07:01.111Z,41.0
2018-10-06T08:13:01.152Z,42.4
2018-10-06T08:18:01.146Z,44.6
2018-10-06T08:23:01.147Z,46.7
2018-10-06T08:28:01.159Z,45.1
2018-10-06T08:33:01.151Z,43.4
2018-10-06T08:38:01.149Z,44.9
2018-10-06T08:43:01.153Z,45.0
2018-10-06T08:48:01.149Z,45.4
2018-10-06T08:53:01.141Z,46.0
2018-10-06T08:58:01.149Z,46.1
2018-10-06T09:03:01.139Z,45.0
2018-10-06T09:08:01.108Z,44.4
2018-10-06T09:13:01.104Z,44.8
2018-10-06T09:18:01.109Z,46.9
2018-10-06T09:23:01.110Z,46.3
2018-10-06T09:28:01.141Z,47.4
2018-10-06T09:33:01.097Z,48.0
2018-10-06T09:38:06.102Z,47.2
2018-10-06T09:43:01.140Z,44.3
2018-10-06T09:48:06.171Z,43.2
2018-10-06T09:53:06.107Z,43.0
2018-10-06T10:03:01.110Z,44.1
2018-10-06T10:08:01.097Z,45.8
2018-10-06T10:13:01.104Z,48.6
2018-10-06T10:18:01.190Z,49.8
2018-10-06T10:23:01.241Z,50.6
2018-10-06T10:28:01.100Z,51.6
2018-10-06T10:33:06.169Z,52.8
2018-10-06T10:38:01.148Z,55.0
2018-10-06T10:43:01.163Z,56.8
2018-10-06T10:48:01.157Z,59.8
2018-10-06T10:53:01.210Z,61.1
2018-10-06T10:58:01.156Z,63.0
2018-10-06T11:03:06.114Z,64.4
2018-10-06T11:08:06.100Z,65.0
2018-10-06T11:13:06.110Z,63.4
2018-10-06T11:18:01.140Z,64.1
2018-10-06T11:23:06.118Z,63.0
2018-10-06T11:28:06.108Z,61.7
2018-10-06T11:33:06.111Z,61.2
2018-10-06T11:38:01.121Z,60.4
2018-10-06T11:43:01.160Z,58.8
2018-10-06T11:48:06.104Z,58.2
2018-10-06T11:53:06.103Z,58.1
2018-10-06T11:58:06.289Z,57.9
2018-10-06T12:03:06.113Z,58.6
2018-10-06T12:08:01.145Z,58.1
2018-10-06T12:13:06.100Z,58.6
2018-10-06T12:18:06.096Z,58.1
2018-10-06T12:23:01.133Z,57.4
2018-10-06T12:28:01.131Z,56.4
2018-10-06T12:33:06.107Z,56.6
2018-10-06T12:43:06.110Z,56.5
2018-10-06T12:48:06.117Z,55.8
2018-10-06T12:54:01.097Z,55.0
2018-10-06T12:59:01.143Z,53.8
2018-10-06T13:04:01.131Z,52.1
2018-10-06T13:09:06.108Z,51.3
2018-10-06T13:14:06.102Z,52.8
2018-10-06T13:19:01.147Z,56.5
2018-10-06T13:24:01.149Z,60.5
2018-10-06T13:29:01.149Z,63.6
2018-10-06T13:34:01.143Z,66.2
2018-10-06T13:39:06.105Z,67.2
2018-10-06T13:44:01.143Z,65.3
2018-10-06T13:49:01.152Z,62.2
2018-10-06T13:54:01.151Z,61.2
2018-10-06T13:59:01.142Z,59.8
2018-10-06T14:04:01.108Z,59.0
2018-10-06T14:09:01.094Z,58.7
2018-10-06T14:14:01.100Z,58.9
2018-10-06T14:19:01.096Z,59.1
2018-10-06T14:24:01.105Z,59.4
2018-10-06T14:34:01.124Z,58.4
2018-10-06T14:39:01.150Z,59.1
2018-10-06T14:44:01.126Z,58.5
2018-10-06T14:49:01.111Z,60.2
2018-10-06T14:54:01.137Z,60.8
2018-10-06T14:59:01.141Z,61.2
2018-10-06T15:04:06.110Z,61.4
2018-10-06T15:09:01.134Z,61.9
2018-10-06T15:14:01.125Z,60.4
2018-10-06T15:19:01.101Z,59.9
2018-10-06T15:24:01.111Z,60.5
2018-10-06T15:29:01.122Z,61.7
2018-10-06T15:34:01.098Z,61.6
2018-10-06T15:39:01.107Z,62.8
2018-10-06T15:44:01.117Z,63.3
2018-10-06T15:49:01.104Z,64.2
2018-10-06T15:54:01.104Z,63.5
2018-10-06T15:59:01.115Z,65.4
2018-10-06T16:04:01.117Z,66.2
2018-10-06T16:09:01.095Z,66.5
2018-10-06T16:14:01.098Z,67.0
2018-10-06T16:19:01.096Z,68.2
2018-10-06T16:24:01.168Z,66.8
2018-10-06T16:29:01.104Z,65.9
2018-10-06T16:34:01.106Z,65.4
2018-10-06T16:39:01.105Z,64.1
2018-10-06T16:44:01.103Z,63.7
2018-10-06T16:49:01.097Z,64.4
2018-10-06T16:54:01.099Z,64.8
2018-10-06T16:59:01.101Z,65.5
2018-10-06T17:04:01.221Z,66.3
2018-10-06T17:09:01.106Z,66.5
2018-10-06T17:14:01.093Z,65.8
2018-10-06T17:19:01.101Z,67.6
2018-10-06T17:24:01.097Z,67.3
2018-10-06T17:29:01.108Z,66.8
2018-10-06T17:34:01.115Z,66.6
2018-10-06T17:39:01.106Z,67.2
2018-10-06T17:44:01.103Z,65.8
2018-10-06T17:49:01.106Z,65.6
2018-10-06T17:54:01.106Z,66.1
2018-10-06T17:59:01.128Z,65.7
2018-10-06T18:04:01.097Z,64.6
2018-10-06T18:09:01.098Z,64.7
2018-10-06T18:14:01.100Z,65.9
2018-10-06T18:19:01.104Z,66.8
2018-10-06T18:24:01.110Z,68.0
2018-10-06T18:29:01.121Z,69.6
2018-10-06T18:34:01.106Z,69.3
2018-10-06T18:40:01.134Z,68.5
2018-10-06T18:45:06.100Z,67.0
2018-10-06T18:50:06.100Z,66.0
2018-10-06T18:55:01.143Z,64.4
2018-10-06T19:00:06.107Z,64.5
2018-10-06T19:05:01.110Z,63.4
2018-10-06T19:10:01.199Z,63.6
2018-10-06T19:15:06.141Z,62.6
2018-10-06T19:20:01.180Z,61.7
2018-10-06T19:25:01.138Z,60.7
2018-10-06T19:30:01.225Z,59.1
2018-10-06T19:35:01.153Z,57.2
2018-10-06T19:40:02.112Z,56.0
2018-10-06T19:45:01.106Z,55.2
2018-10-06T19:50:01.154Z,53.6
2018-10-06T19:56:01.138Z,53.4
2018-10-06T20:01:01.131Z,54.4
2018-10-06T20:06:01.098Z,53.9
2018-10-06T20:11:01.099Z,53.5
2018-10-06T20:16:01.102Z,51.6
2018-10-06T20:21:01.171Z,46.8
2018-10-06T20:26:01.104Z,40.5
2018-10-06T20:31:01.110Z,34.0
2018-10-06T20:36:01.119Z,27.2
2018-10-06T20:41:01.160Z,22.3
2018-10-06T20:46:01.090Z,20.0
2018-10-06T20:51:01.125Z,19.2
2018-10-06T20:56:01.131Z,18.3
2018-10-06T21:01:01.133Z,19.8
2018-10-06T21:11:01.158Z,20.3
2018-10-06T21:16:01.105Z,20.1
2018-10-06T21:21:01.119Z,20.4
2018-10-06T21:26:01.110Z,18.7
2018-10-06T21:32:01.104Z,17.6
2018-10-06T21:37:01.105Z,16.6
2018-10-06T21:42:01.104Z,15.6
2018-10-06T21:47:01.105Z,14.8
2018-10-06T21:52:01.112Z,13.7
2018-10-06T21:57:01.111Z,12.4
2018-10-06T22:02:01.117Z,10.5
2018-10-06T22:07:06.110Z,8.3
2018-10-06T22:12:01.136Z,7.0
2018-10-06T22:17:02.175Z,5.8
2018-10-06T22:22:06.101Z,5.5
2018-10-06T22:27:06.169Z,5.9
2018-10-06T22:32:06.103Z,6.3
2018-10-06T22:37:06.110Z,7.0
2018-10-06T22:42:06.093Z,7.6
2018-10-06T22:47:01.146Z,7.8
2018-10-06T22:52:01.160Z,8.2
2018-10-06T22:57:01.195Z,8.3
2018-10-06T23:02:01.117Z,7.5
2018-10-06T23:07:01.099Z,6.9
2018-10-06T23:12:01.173Z,6.0
2018-10-06T23:17:01.113Z,4.8
2018-10-06T23:22:01.104Z,4.0
2018-10-06T23:27:01.122Z,3.8
2018-10-06T23:33:01.094Z,3.4
2018-10-06T23:38:01.098Z,3.2
2018-10-06T23:43:01.101Z,3.0
2018-10-06T23:48:01.102Z,3.5
